Time;durP1;ratioP1;P1;durP2;ratioP2;P2;SDS_P1;SDS_P2;PMS_P1;PMS_P2;Temp;Humidity;BMP_temperature;BMP_pressure;BME280_temperature;BME280_humidity;BME280_pressure;Samples;Min_cycle;Max_cycle;Signal;HPM_P1;HPM_P2
2023/03/20 00:03:26;;;;;;;14.85;11.80;;;;;;;;;;10292869;28;20556;-62
2023/03/20 00:08:24;;;;;;;14.25;11.45;;;;;;;;;;10293577;28;20080;-62
2023/03/20 00:13:28;;;;;;;14.25;12.48;;;;;;;;;;10291612;28;20470;-61
2023/03/20 00:18:26;;;;;;;14.38;11.82;;;;;;;;;;10291933;28;20525;-62
2023/03/20 00:23:26;;;;;;;15.07;11.63;;;;;;;;;;10290964;28;20078;-61
2023/03/20 00:28:37;;;;;;;15.60;10.68;;;;;;;;;;10292417;28;20105;-62
2023/03/20 00:33:37;;;;;;;14.02;11.45;;;;;;;;;;10301910;28;20477;-61
2023/03/20 00:38:35;;;;;;;15.13;12.13;;;;;;;;;;10289993;28;20084;-62
2023/03/20 00:43:34;;;;;;;13.35;11.73;;;;;;;;;;10290475;28;20087;-62
2023/03/20 00:48:32;;;;;;;13.48;11.63;;;;;;;;;;10291074;28;20072;-62
2023/03/20 00:53:33;;;;;;;16.58;12.55;;;;;;;;;;10287038;28;20068;-62
2023/03/20 00:58:31;;;;;;;15.85;11.85;;;;;;;;;;10287810;28;20466;-62
2023/03/20 01:03:31;;;;;;;15.75;11.40;;;;;;;;;;10290240;28;20072;-62
2023/03/20 01:08:29;;;;;;;13.98;12.35;;;;;;;;;;10290406;28;20064;-61
2023/03/20 01:13:28;;;;;;;15.88;12.65;;;;;;;;;;10290403;28;20072;-62
2023/03/20 01:18:27;;;;;;;13.35;11.98;;;;;;;;;;10289570;28;20076;-62
2023/03/20 01:23:26;;;;;;;16.42;13.10;;;;;;;;;;10289496;28;20071;-62
2023/03/20 01:28:25;;;;;;;14.68;12.60;;;;;;;;;;10290538;28;20084;-62
2023/03/20 01:33:25;;;;;;;14.85;12.55;;;;;;;;;;10299965;28;20510;-62
2023/03/20 01:38:27;;;;;;;15.07;13.27;;;;;;;;;;10286727;28;20095;-62
2023/03/20 01:43:28;;;;;;;15.52;12.40;;;;;;;;;;10291551;28;20053;-61
2023/03/20 01:48:32;;;;;;;17.60;15.02;;;;;;;;;;10289551;28;20079;-62
2023/03/20 01:53:32;;;;;;;17.47;14.27;;;;;;;;;;10295671;28;20418;-62
2023/03/20 01:58:36;;;;;;;14.73;12.43;;;;;;;;;;10289089;28;20099;-62
2023/03/20 02:03:34;;;;;;;15.98;12.07;;;;;;;;;;10296780;28;20063;-62
2023/03/20 02:08:49;;;;;;;16.90;12.18;;;;;;;;;;10293924;28;20045;-62
2023/03/20 02:13:50;;;;;;;16.15;12.30;;;;;;;;;;10293968;28;20524;-62
2023/03/20 02:18:51;;;;;;;14.60;11.77;;;;;;;;;;10297768;28;20098;-62
2023/03/20 02:24:04;;;;;;;16.38;12.63;;;;;;;;;;10294914;28;20076;-62
2023/03/20 02:29:06;;;;;;;;;;;;;;;;;;10292553;28;20052;-61
2023/03/20 02:34:20;;;;;;;14.48;12.20;;;;;;;;;;10296379;28;19931;-61
2023/03/20 02:39:28;;;;;;;19.65;13.45;;;;;;;;;;10311385;28;20130;-64
2023/03/20 02:44:31;;;;;;;13.80;11.80;;;;;;;;;;10300557;28;20073;-61
2023/03/20 02:49:50;;;;;;;14.32;11.77;;;;;;;;;;10293026;28;20088;-62
2023/03/20 02:54:54;;;;;;;16.88;12.90;;;;;;;;;;10294888;28;20040;-62
2023/03/20 02:59:55;;;;;;;15.75;12.13;;;;;;;;;;10295283;28;20131;-62
2023/03/20 03:04:57;;;;;;;13.57;11.70;;;;;;;;;;10295521;28;20096;-62
2023/03/20 03:09:58;;;;;;;13.23;11.15;;;;;;;;;;10301636;28;20076;-62
2023/03/20 03:14:57;;;;;;;14.55;11.57;;;;;;;;;;10294748;28;20076;-62
2023/03/20 03:19:58;;;;;;;13.63;11.68;;;;;;;;;;10301011;28;20087;-62
2023/03/20 03:24:57;;;;;;;17.25;14.43;;;;;;;;;;10295186;28;20068;-62
2023/03/20 03:29:57;;;;;;;14.88;12.32;;;;;;;;;;10308055;28;20075;-62
2023/03/20 03:34:58;;;;;;;13.93;11.70;;;;;;;;;;10293949;28;20099;-61
2023/03/20 03:40:03;;;;;;;15.48;12.50;;;;;;;;;;10293893;28;20530;-61
2023/03/20 03:45:03;;;;;;;14.30;12.63;;;;;;;;;;10292786;28;20061;-62
2023/03/20 03:50:02;;;;;;;14.23;12.68;;;;;;;;;;10293857;28;20069;-62
2023/03/20 03:55:05;;;;;;;14.85;11.75;;;;;;;;;;10290166;28;20048;-62
2023/03/20 04:00:05;;;;;;;17.33;12.50;;;;;;;;;;10297045;28;20709;-62
2023/03/20 04:05:10;;;;;;;18.77;12.85;;;;;;;;;;10297469;28;20071;-62
2023/03/20 04:10:10;;;;;;;15.63;12.55;;;;;;;;;;10292272;28;20385;-62
2023/03/20 04:15:11;;;;;;;14.35;12.85;;;;;;;;;;10293438;28;20088;-62
2023/03/20 04:20:11;;;;;;;15.93;13.38;;;;;;;;;;10291588;28;20087;-62
2023/03/20 04:25:16;;;;;;;16.60;13.52;;;;;;;;;;10293179;28;20072;-62
2023/03/20 04:30:14;;;;;;;15.48;11.88;;;;;;;;;;10286665;28;20498;-61
2023/03/20 04:35:31;;;;;;;12.73;11.35;;;;;;;;;;10288797;28;20068;-62
2023/03/20 04:40:35;;;;;;;14.98;12.15;;;;;;;;;;10290601;28;20107;-62
2023/03/20 04:45:34;;;;;;;14.82;12.35;;;;;;;;;;10294488;28;20174;-62
2023/03/20 04:50:33;;;;;;;15.77;12.73;;;;;;;;;;10291723;28;20096;-61
2023/03/20 04:55:33;;;;;;;14.52;12.70;;;;;;;;;;10290266;28;20075;-62
2023/03/20 05:00:33;;;;;;;18.92;13.25;;;;;;;;;;10294746;28;20464;-62
2023/03/20 05:05:32;;;;;;;18.25;15.00;;;;;;;;;;10296543;28;20082;-62
2023/03/20 05:10:32;;;;;;;16.00;13.80;;;;;;;;;;10282177;28;20073;-62
2023/03/20 05:15:38;;;;;;;13.82;11.82;;;;;;;;;;10278842;28;20091;-62
2023/03/20 05:20:54;;;;;;;15.43;13.05;;;;;;;;;;10289573;28;20076;-62
2023/03/20 05:26:28;;;;;;;16.02;12.93;;;;;;;;;;10321304;28;20088;-61
2023/03/20 05:31:46;;;;;;;13.90;12.05;;;;;;;;;;10287512;28;20451;-62
2023/03/20 05:36:59;;;;;;;15.98;12.52;;;;;;;;;;10290188;28;20198;-62
2023/03/20 05:42:03;;;;;;;14.23;11.83;;;;;;;;;;10290306;28;20581;-62
2023/03/20 05:47:16;;;;;;;15.25;12.35;;;;;;;;;;10293172;28;20095;-60
2023/03/20 05:52:47;;;;;;;14.35;12.38;;;;;;;;;;10297895;28;20491;-61
2023/03/20 05:57:56;;;;;;;16.33;12.50;;;;;;;;;;10291971;28;20083;-61
2023/03/20 06:03:28;;;;;;;14.18;12.45;;;;;;;;;;10297604;28;20080;-60
2023/03/20 06:08:40;;;;;;;14.13;12.05;;;;;;;;;;10298836;28;20467;-61
2023/03/20 06:13:38;;;;;;;23.50;13.95;;;;;;;;;;10303691;28;20064;-61
2023/03/20 06:18:39;;;;;;;14.80;11.85;;;;;;;;;;10293542;28;20080;-62
2023/03/20 06:23:39;;;;;;;14.90;11.07;;;;;;;;;;10305726;28;20075;-61
2023/03/20 06:28:38;;;;;;;16.25;12.75;;;;;;;;;;10299820;28;20077;-61
2023/03/20 06:33:40;;;;;;;39.78;18.88;;;;;;;;;;10291091;28;20071;-61
2023/03/20 06:38:39;;;;;;;40.40;24.23;;;;;;;;;;10287700;28;20096;-62
2023/03/20 06:43:43;;;;;;;23.60;16.58;;;;;;;;;;10296062;28;20088;-61
2023/03/20 06:48:43;;;;;;;21.45;15.10;;;;;;;;;;10293034;28;20598;-60
2023/03/20 06:53:43;;;;;;;28.80;16.42;;;;;;;;;;10296241;28;20087;-60
2023/03/20 06:58:47;;;;;;;26.95;18.13;;;;;;;;;;10300266;28;20057;-60
2023/03/20 07:03:47;;;;;;;21.63;14.70;;;;;;;;;;10300289;28;20082;-61
2023/03/20 07:08:51;;;;;;;22.48;16.05;;;;;;;;;;10295242;28;20041;-60
2023/03/20 07:13:51;;;;;;;21.38;13.98;;;;;;;;;;10306249;28;20064;-61
2023/03/20 07:19:01;;;;;;;17.23;15.05;;;;;;;;;;10302801;28;20083;-61
2023/03/20 07:24:05;;;;;;;20.93;14.70;;;;;;;;;;10295470;28;20087;-61
2023/03/20 07:29:03;;;;;;;27.23;17.60;;;;;;;;;;10291909;28;20072;-60
2023/03/20 07:34:04;;;;;;;26.55;19.23;;;;;;;;;;10289407;28;20072;-60
2023/03/20 07:39:05;;;;;;;21.58;16.40;;;;;;;;;;10291859;28;20092;-61
2023/03/20 07:44:06;;;;;;;21.65;14.80;;;;;;;;;;10292353;28;20085;-61
2023/03/20 07:49:23;;;;;;;22.38;17.33;;;;;;;;;;10276873;28;20077;-61
2023/03/20 07:54:21;;;;;;;24.40;18.27;;;;;;;;;;10296776;28;20107;-62
2023/03/20 07:59:19;;;;;;;26.38;16.58;;;;;;;;;;10293547;28;20778;-61
2023/03/20 08:04:20;;;;;;;21.30;15.38;;;;;;;;;;10291806;28;20076;-61
2023/03/20 08:09:19;;;;;;;24.13;15.07;;;;;;;;;;10289604;28;20102;-59
2023/03/20 08:14:18;;;;;;;23.58;13.75;;;;;;;;;;10288475;28;20082;-62
2023/03/20 08:19:16;;;;;;;17.25;15.10;;;;;;;;;;10291882;28;20095;-60
2023/03/20 08:24:14;;;;;;;16.50;13.60;;;;;;;;;;10280283;28;20072;-60
2023/03/20 08:29:16;;;;;;;49.75;37.58;;;;;;;;;;10291413;28;20084;-61
2023/03/20 08:34:14;;;;;;;25.65;18.02;;;;;;;;;;10287669;28;20513;-60
2023/03/20 08:39:12;;;;;;;19.70;16.73;;;;;;;;;;10287168;28;20092;-59
2023/03/20 08:44:10;;;;;;;19.45;13.75;;;;;;;;;;10288333;28;20502;-60
2023/03/20 08:49:10;;;;;;;29.42;20.33;;;;;;;;;;10289344;28;20075;-60
2023/03/20 08:54:08;;;;;;;19.13;13.25;;;;;;;;;;10279069;28;20083;-60
2023/03/20 08:59:06;;;;;;;18.38;13.25;;;;;;;;;;10290110;28;20071;-61
2023/03/20 09:04:05;;;;;;;20.17;13.88;;;;;;;;;;10288931;28;20071;-60
2023/03/20 09:09:04;;;;;;;19.63;11.98;;;;;;;;;;10289031;28;20083;-61
2023/03/20 09:14:02;;;;;;;14.57;10.98;;;;;;;;;;10284714;28;20057;-59
2023/03/20 09:19:01;;;;;;;18.92;14.50;;;;;;;;;;10287370;28;20068;-60
2023/03/20 09:23:59;;;;;;;15.43;12.85;;;;;;;;;;10287421;28;20074;-61
2023/03/20 09:28:59;;;;;;;14.00;11.52;;;;;;;;;;10286853;28;20262;-61
2023/03/20 09:33:57;;;;;;;15.93;12.15;;;;;;;;;;10287331;28;20064;-62
2023/03/20 09:38:55;;;;;;;13.75;10.75;;;;;;;;;;10287737;28;20080;-59
2023/03/20 09:44:07;;;;;;;13.52;11.65;;;;;;;;;;10289241;28;20514;-60
2023/03/20 09:49:12;;;;;;;16.00;11.63;;;;;;;;;;10287653;28;20540;-60
2023/03/20 09:54:14;;;;;;;18.52;12.00;;;;;;;;;;10290479;28;20079;-60
2023/03/20 09:59:15;;;;;;;17.33;11.30;;;;;;;;;;10288367;28;20083;-61
2023/03/20 10:04:13;;;;;;;16.83;11.30;;;;;;;;;;10290298;28;20110;-61
2023/03/20 10:09:14;;;;;;;14.85;11.15;;;;;;;;;;10288801;28;20277;-62
2023/03/20 10:14:21;;;;;;;12.07;10.10;;;;;;;;;;10289598;28;20412;-60
2023/03/20 10:19:23;;;;;;;15.05;9.43;;;;;;;;;;10289923;28;20076;-60
2023/03/20 10:24:23;;;;;;;13.38;9.63;;;;;;;;;;10288139;28;20075;-61
2023/03/20 10:29:30;;;;;;;12.45;10.75;;;;;;;;;;10289543;28;20067;-61
2023/03/20 10:34:35;;;;;;;12.75;10.13;;;;;;;;;;10289202;28;20491;-61
2023/03/20 10:39:39;;;;;;;11.20;9.20;;;;;;;;;;10294681;28;20123;-61
2023/03/20 10:44:40;;;;;;;9.20;7.33;;;;;;;;;;10296475;28;20083;-61
2023/03/20 10:49:40;;;;;;;11.07;8.05;;;;;;;;;;10298192;28;20076;-62
2023/03/20 10:54:40;;;;;;;11.43;8.20;;;;;;;;;;10297830;28;20076;-61
2023/03/20 10:59:41;;;;;;;8.77;7.72;;;;;;;;;;10289955;28;20088;-62
2023/03/20 11:04:40;;;;;;;14.68;8.88;;;;;;;;;;10291537;28;20087;-61
2023/03/20 11:09:38;;;;;;;10.45;7.97;;;;;;;;;;10295692;28;20065;-61
2023/03/20 11:14:38;;;;;;;9.13;7.95;;;;;;;;;;10294995;28;20671;-61
2023/03/20 11:19:39;;;;;;;25.48;18.73;;;;;;;;;;10295772;28;20061;-60
2023/03/20 11:24:39;;;;;;;10.45;5.70;;;;;;;;;;10292079;28;20068;-62
2023/03/20 11:29:39;;;;;;;9.05;7.72;;;;;;;;;;10295300;28;20065;-62
2023/03/20 11:34:42;;;;;;;9.27;5.88;;;;;;;;;;10294952;28;20106;-61
2023/03/20 11:39:52;;;;;;;14.68;6.90;;;;;;;;;;10293883;28;20533;-61
2023/03/20 11:44:57;;;;;;;6.55;5.07;;;;;;;;;;10296043;28;20092;-61
2023/03/20 11:49:57;;;;;;;7.18;4.32;;;;;;;;;;10293244;28;20068;-61
2023/03/20 11:54:57;;;;;;;7.28;4.78;;;;;;;;;;10292836;28;20089;-61
2023/03/20 11:59:55;;;;;;;5.72;4.63;;;;;;;;;;10293524;28;20150;-61
2023/03/20 12:04:54;;;;;;;8.18;6.82;;;;;;;;;;10294321;28;20661;-61
2023/03/20 12:09:55;;;;;;;8.50;6.28;;;;;;;;;;10294340;28;20071;-61
2023/03/20 12:14:56;;;;;;;5.72;5.03;;;;;;;;;;10293161;28;20079;-61
2023/03/20 12:19:56;;;;;;;6.82;5.28;;;;;;;;;;10292666;28;20080;-60
2023/03/20 12:24:58;;;;;;;7.93;6.30;;;;;;;;;;10292107;28;20080;-61
2023/03/20 12:30:00;;;;;;;6.97;5.68;;;;;;;;;;10290518;28;20088;-61
2023/03/20 12:34:59;;;;;;;8.45;6.43;;;;;;;;;;10292392;28;20080;-60
2023/03/20 12:39:59;;;;;;;8.32;7.15;;;;;;;;;;10292612;28;20088;-62
2023/03/20 12:45:00;;;;;;;8.15;6.03;;;;;;;;;;10292498;28;20529;-61
2023/03/20 12:50:03;;;;;;;8.73;6.90;;;;;;;;;;10291257;28;20071;-60
2023/03/20 12:55:14;;;;;;;10.05;6.28;;;;;;;;;;10290590;28;20494;-61
2023/03/20 13:00:18;;;;;;;8.63;6.10;;;;;;;;;;10305320;28;20048;-61
2023/03/20 13:05:22;;;;;;;8.07;6.45;;;;;;;;;;10291917;28;20072;-60
2023/03/20 13:10:22;;;;;;;8.60;7.28;;;;;;;;;;10290797;28;20076;-61
2023/03/20 13:15:25;;;;;;;8.57;7.00;;;;;;;;;;10290138;28;20067;-60
2023/03/20 13:20:25;;;;;;;8.15;6.55;;;;;;;;;;10292850;28;20502;-60
2023/03/20 13:25:34;;;;;;;9.98;7.10;;;;;;;;;;10288727;28;20084;-61
2023/03/20 13:30:37;;;;;;;24.67;21.08;;;;;;;;;;10289662;28;20065;-61
2023/03/20 13:35:40;;;;;;;6.40;5.80;;;;;;;;;;10287076;28;20061;-61
2023/03/20 13:40:42;;;;;;;7.43;6.30;;;;;;;;;;10290012;28;20092;-61
2023/03/20 13:45:41;;;;;;;6.28;5.60;;;;;;;;;;10290110;28;20072;-62
2023/03/20 13:50:43;;;;;;;6.43;5.68;;;;;;;;;;10290358;28;20079;-61
2023/03/20 13:55:45;;;;;;;9.27;5.80;;;;;;;;;;10289827;28;20080;-61
2023/03/20 14:00:49;;;;;;;7.93;5.55;;;;;;;;;;10289636;28;20075;-62
2023/03/20 14:05:47;;;;;;;13.73;9.15;;;;;;;;;;10292752;28;20467;-62
2023/03/20 14:10:47;;;;;;;7.18;6.00;;;;;;;;;;10284658;28;20076;-61
2023/03/20 14:15:49;;;;;;;11.88;5.55;;;;;;;;;;10298436;28;20501;-61
2023/03/20 14:20:52;;;;;;;6.30;5.60;;;;;;;;;;10297566;28;20487;-61
2023/03/20 14:25:54;;;;;;;9.82;4.53;;;;;;;;;;10297257;28;20080;-61
2023/03/20 14:31:11;;;;;;;10.32;5.25;;;;;;;;;;10294416;28;20075;-61
2023/03/20 14:36:19;;;;;;;8.90;6.18;;;;;;;;;;10294950;28;20812;-61
2023/03/20 14:41:22;;;;;;;12.48;7.40;;;;;;;;;;10294288;28;20088;-61
2023/03/20 14:46:24;;;;;;;11.45;8.75;;;;;;;;;;10296307;28;20501;-61
2023/03/20 14:51:28;;;;;;;10.35;7.82;;;;;;;;;;10296913;28;20080;-61
2023/03/20 14:56:32;;;;;;;12.13;5.47;;;;;;;;;;10294148;28;20073;-61
2023/03/20 15:01:44;;;;;;;12.15;6.93;;;;;;;;;;10295152;28;20076;-61
2023/03/20 15:06:45;;;;;;;12.70;9.15;;;;;;;;;;10295607;28;20128;-61
2023/03/20 15:11:46;;;;;;;14.75;7.78;;;;;;;;;;10295278;28;20483;-61
2023/03/20 15:16:45;;;;;;;12.27;7.22;;;;;;;;;;10294731;28;20057;-61
2023/03/20 15:21:44;;;;;;;8.52;7.43;;;;;;;;;;10294786;28;20094;-61
2023/03/20 15:26:43;;;;;;;9.23;5.85;;;;;;;;;;10294015;28;20099;-61
2023/03/20 15:31:42;;;;;;;8.25;7.15;;;;;;;;;;10293124;28;20069;-61
2023/03/20 15:36:40;;;;;;;13.05;6.82;;;;;;;;;;10288828;28;20098;-62
2023/03/20 15:41:39;;;;;;;11.48;7.45;;;;;;;;;;10293549;28;20083;-62
2023/03/20 15:46:37;;;;;;;13.10;7.13;;;;;;;;;;10292165;28;20080;-61
2023/03/20 15:51:37;;;;;;;7.07;6.07;;;;;;;;;;10294481;28;20071;-61
2023/03/20 15:56:41;;;;;;;8.70;6.68;;;;;;;;;;10292577;28;20079;-61
2023/03/20 16:01:39;;;;;;;40.45;23.10;;;;;;;;;;10288209;28;20076;-61
2023/03/20 16:06:45;;;;;;;20.90;13.38;;;;;;;;;;10293259;28;20080;-61
2023/03/20 16:11:44;;;;;;;22.50;15.98;;;;;;;;;;10292851;28;20465;-61
2023/03/20 16:16:43;;;;;;;32.00;19.30;;;;;;;;;;10292079;28;20073;-61
2023/03/20 16:21:44;;;;;;;36.80;28.40;;;;;;;;;;10292218;28;20076;-61
2023/03/20 16:26:44;;;;;;;73.47;51.35;;;;;;;;;;10292934;28;20083;-61
2023/03/20 16:31:45;;;;;;;69.53;44.85;;;;;;;;;;10291631;28;20077;-61
2023/03/20 16:36:49;;;;;;;63.38;43.45;;;;;;;;;;10290151;28;20072;-61
2023/03/20 16:41:49;;;;;;;82.55;58.25;;;;;;;;;;10288384;28;20462;-61
2023/03/20 16:46:54;;;;;;;63.10;46.38;;;;;;;;;;10290507;28;20069;-61
2023/03/20 16:51:56;;;;;;;37.92;29.55;;;;;;;;;;10290925;28;20103;-61
2023/03/20 16:56:57;;;;;;;;;;;;;;;;;;10291204;28;20068;-61
2023/03/20 17:01:58;;;;;;;34.75;23.98;;;;;;;;;;10289734;28;19947;-61
2023/03/20 17:07:00;;;;;;;24.85;17.95;;;;;;;;;;10291659;28;20072;-61
2023/03/20 17:12:02;;;;;;;29.13;16.73;;;;;;;;;;10288466;28;20073;-62
2023/03/20 17:17:00;;;;;;;17.25;13.88;;;;;;;;;;10292068;28;20060;-62
2023/03/20 17:22:02;;;;;;;17.77;14.90;;;;;;;;;;10288786;28;20493;-61
2023/03/20 17:27:00;;;;;;;16.55;10.98;;;;;;;;;;10292859;28;20521;-63
2023/03/20 17:31:58;;;;;;;18.10;11.35;;;;;;;;;;10288185;28;20079;-62
2023/03/20 17:37:00;;;;;;;22.38;13.77;;;;;;;;;;10288020;28;20073;-61
2023/03/20 17:42:00;;;;;;;28.10;17.73;;;;;;;;;;10291098;28;21237;-61
2023/03/20 17:46:59;;;;;;;27.27;18.88;;;;;;;;;;10295120;28;20076;-60
2023/03/20 17:51:57;;;;;;;28.00;22.13;;;;;;;;;;10298645;28;20824;-61
2023/03/20 17:56:55;;;;;;;20.20;14.27;;;;;;;;;;10295279;28;20064;-61
2023/03/20 18:01:55;;;;;;;19.52;13.05;;;;;;;;;;10298065;28;20064;-62
2023/03/20 18:06:53;;;;;;;13.20;10.55;;;;;;;;;;10300648;28;20072;-61
2023/03/20 18:11:51;;;;;;;19.73;14.45;;;;;;;;;;10300020;28;20068;-61
2023/03/20 18:16:49;;;;;;;20.20;17.40;;;;;;;;;;10300562;28;20076;-61
2023/03/20 18:21:49;;;;;;;16.10;13.82;;;;;;;;;;10297510;28;20110;-62
2023/03/20 18:26:47;;;;;;;20.88;13.18;;;;;;;;;;10296661;28;20068;-62
2023/03/20 18:31:46;;;;;;;14.43;12.25;;;;;;;;;;10301358;28;20053;-62
2023/03/20 18:36:45;;;;;;;16.95;12.68;;;;;;;;;;10302375;28;20064;-61
2023/03/20 18:41:44;;;;;;;13.27;10.43;;;;;;;;;;10301636;28;20089;-62
2023/03/20 18:46:43;;;;;;;14.77;10.55;;;;;;;;;;10303489;28;20076;-62
2023/03/20 18:51:41;;;;;;;12.68;10.23;;;;;;;;;;10297887;28;20060;-61
2023/03/20 18:56:39;;;;;;;16.25;11.30;;;;;;;;;;10296061;28;20105;-62
2023/03/20 19:01:39;;;;;;;14.85;10.05;;;;;;;;;;10294157;28;20064;-62
2023/03/20 19:06:38;;;;;;;27.55;17.67;;;;;;;;;;10290204;28;21602;-62
2023/03/20 19:11:36;;;;;;;24.02;18.55;;;;;;;;;;10286793;28;20060;-60
2023/03/20 19:16:36;;;;;;;22.08;17.13;;;;;;;;;;10291654;28;20068;-62
2023/03/20 19:21:36;;;;;;;18.58;14.30;;;;;;;;;;10299123;28;20103;-62
2023/03/20 19:26:36;;;;;;;21.55;14.18;;;;;;;;;;10291153;28;20150;-62
2023/03/20 19:31:34;;;;;;;13.38;11.77;;;;;;;;;;10290667;28;20098;-61
2023/03/20 19:36:33;;;;;;;16.33;11.23;;;;;;;;;;10290945;28;20497;-60
2023/03/20 19:41:33;;;;;;;11.38;9.70;;;;;;;;;;10294924;28;20531;-62
2023/03/20 19:46:32;;;;;;;15.23;10.38;;;;;;;;;;10290023;28;20076;-62
2023/03/20 19:51:39;;;;;;;11.70;9.35;;;;;;;;;;10296518;28;20068;-62
2023/03/20 19:56:39;;;;;;;14.30;9.75;;;;;;;;;;10290239;28;20083;-61
2023/03/20 20:01:37;;;;;;;14.20;9.80;;;;;;;;;;10287049;28;20591;-62
2023/03/20 20:06:35;;;;;;;11.68;9.32;;;;;;;;;;10286521;28;20127;-61
2023/03/20 20:11:37;;;;;;;11.93;10.35;;;;;;;;;;10291688;28;20468;-61
2023/03/20 20:16:38;;;;;;;12.90;9.38;;;;;;;;;;10293826;28;20529;-61
2023/03/20 20:21:36;;;;;;;11.45;9.10;;;;;;;;;;10286811;28;20084;-63
2023/03/20 20:26:55;;;;;;;9.43;8.20;;;;;;;;;;10289952;28;20088;-61
2023/03/20 20:32:15;;;;;;;11.15;9.10;;;;;;;;;;10291017;28;20069;-62
2023/03/20 20:37:13;;;;;;;14.90;9.40;;;;;;;;;;10285059;28;20077;-62
2023/03/20 20:42:31;;;;;;;11.02;8.73;;;;;;;;;;10286442;28;20083;-62
2023/03/20 20:47:31;;;;;;;11.35;9.02;;;;;;;;;;10290996;28;20490;-62
2023/03/20 20:52:30;;;;;;;10.60;8.95;;;;;;;;;;10284193;28;20076;-63
2023/03/20 20:57:29;;;;;;;11.02;9.23;;;;;;;;;;10286723;28;20087;-61
2023/03/20 21:02:28;;;;;;;37.45;25.13;;;;;;;;;;10282958;28;20482;-62
2023/03/20 21:07:28;;;;;;;15.25;11.45;;;;;;;;;;10280645;28;20135;-62
2023/03/20 21:12:26;;;;;;;7.43;6.32;;;;;;;;;;10285290;28;20075;-62
2023/03/20 21:17:39;;;;;;;7.53;6.60;;;;;;;;;;10283186;28;20068;-61
2023/03/20 21:22:58;;;;;;;9.07;6.07;;;;;;;;;;10286001;28;20069;-61
2023/03/20 21:27:56;;;;;;;24.80;18.05;;;;;;;;;;10287726;28;20071;-61
2023/03/20 21:32:54;;;;;;;57.67;44.50;;;;;;;;;;10274761;28;20485;-61
2023/03/20 21:37:52;;;;;;;34.38;25.77;;;;;;;;;;10290639;28;20077;-61
2023/03/20 21:43:12;;;;;;;27.80;23.63;;;;;;;;;;10284947;28;20473;-61
2023/03/20 21:48:10;;;;;;;14.82;11.43;;;;;;;;;;10284608;28;20455;-61
2023/03/20 21:53:29;;;;;;;11.25;9.27;;;;;;;;;;10290764;28;20074;-62
2023/03/20 21:58:48;;;;;;;11.30;9.32;;;;;;;;;;10290277;28;20140;-61
2023/03/20 22:04:06;;;;;;;8.05;7.07;;;;;;;;;;10289572;28;20498;-61
2023/03/20 22:09:24;;;;;;;12.73;7.68;;;;;;;;;;10292254;28;20136;-62
2023/03/20 22:14:44;;;;;;;21.50;13.90;;;;;;;;;;10284757;28;20080;-61
2023/03/20 22:20:02;;;;;;;19.52;16.02;;;;;;;;;;10285184;28;20467;-61
2023/03/20 22:25:20;;;;;;;23.00;15.50;;;;;;;;;;10283339;28;20085;-61
2023/03/20 22:30:40;;;;;;;14.27;9.98;;;;;;;;;;10288360;28;20084;-62
2023/03/20 22:35:58;;;;;;;13.38;8.20;;;;;;;;;;10295392;28;20068;-61
2023/03/20 22:41:17;;;;;;;9.43;6.65;;;;;;;;;;10294985;28;20080;-61
2023/03/20 22:46:37;;;;;;;7.47;6.68;;;;;;;;;;10296746;28;20473;-62
2023/03/20 22:51:44;;;;;;;39.63;25.60;;;;;;;;;;10295839;28;20083;-62
2023/03/20 22:57:02;;;;;;;28.80;18.73;;;;;;;;;;10296570;28;20072;-62
2023/03/20 23:02:02;;;;;;;21.15;16.77;;;;;;;;;;10290593;28;20062;-61
2023/03/20 23:07:01;;;;;;;18.08;13.00;;;;;;;;;;10295243;28;20091;-61
2023/03/20 23:11:59;;;;;;;24.58;16.95;;;;;;;;;;10293359;28;20069;-61
2023/03/20 23:16:58;;;;;;;16.85;12.63;;;;;;;;;;10304042;28;20512;-61
2023/03/20 23:21:57;;;;;;;11.60;10.30;;;;;;;;;;10294809;28;20266;-62
2023/03/20 23:26:55;;;;;;;16.75;11.10;;;;;;;;;;10295778;28;20095;-61
2023/03/20 23:31:54;;;;;;;9.40;7.78;;;;;;;;;;10293819;28;20064;-62
2023/03/20 23:36:52;;;;;;;11.18;7.63;;;;;;;;;;10293272;28;20071;-62
2023/03/20 23:41:51;;;;;;;16.23;11.40;;;;;;;;;;10295326;28;20072;-62
2023/03/20 23:47:09;;;;;;;13.02;9.35;;;;;;;;;;10294168;28;20076;-62
2023/03/20 23:52:17;;;;;;;33.42;23.80;;;;;;;;;;10293931;28;20451;-62
2023/03/20 23:57:16;;;;;;;13.02;11.30;;;;;;;;;;10292685;28;20080;-62
